Time;durP1;ratioP1;P1;durP2;ratioP2;P2;SDS_P1;SDS_P2;PMS_P1;PMS_P2;Temp;Humidity;BMP_temperature;BMP_pressure;BME280_temperature;BME280_humidity;BME280_pressure;Samples;Min_cycle;Max_cycle;Signal;HPM_P1;HPM_P2
2023/03/06 00:00:41;;;;;;;75.28;14.35;;;4.50;99.90;;;;;;5019529;28;20165;-86
2023/03/06 00:03:07;;;;;;;74.25;13.75;;;4.50;99.90;;;;;;5017763;28;20198;-85
2023/03/06 00:05:33;;;;;;;74.03;12.95;;;4.40;99.90;;;;;;5017707;28;20252;-85
2023/03/06 00:07:59;;;;;;;73.00;12.67;;;4.40;99.90;;;;;;5019636;28;20192;-85
2023/03/06 00:10:27;;;;;;;73.67;12.80;;;4.40;99.90;;;;;;5018774;28;20451;-86
2023/03/06 00:12:55;;;;;;;72.07;11.40;;;4.40;99.90;;;;;;5018592;28;20500;-86
2023/03/06 00:15:23;;;;;;;70.90;10.35;;;4.40;99.90;;;;;;5017677;28;20196;-86
2023/03/06 00:17:49;;;;;;;71.53;11.48;;;4.40;99.90;;;;;;5018135;28;20193;-86
2023/03/06 00:20:16;;;;;;;70.80;11.55;;;4.30;99.90;;;;;;5018875;28;20220;-85
2023/03/06 00:22:42;;;;;;;69.47;10.40;;;4.40;99.90;;;;;;5018273;28;20269;-86
2023/03/06 00:25:13;;;;;;;73.97;11.82;;;4.30;99.90;;;;;;5018751;28;20228;-86
2023/03/06 00:27:41;;;;;;;71.60;10.63;;;4.20;99.90;;;;;;5019320;28;20254;-86
2023/03/06 00:30:12;;;;;;;73.05;11.15;;;4.20;99.90;;;;;;5018780;28;20166;-86
2023/03/06 00:32:38;;;;;;;74.43;12.00;;;4.20;99.90;;;;;;5017747;28;20190;-85
2023/03/06 00:35:04;;;;;;;72.07;10.60;;;4.30;99.90;;;;;;5019068;28;20689;-86
2023/03/06 00:37:30;;;;;;;77.35;12.52;;;4.30;99.90;;;;;;5018316;28;20927;-86
2023/03/06 00:39:56;;;;;;;72.37;12.90;;;4.30;99.90;;;;;;5018473;28;20173;-86
2023/03/06 00:42:22;;;;;;;72.47;12.00;;;4.30;99.90;;;;;;5018637;28;20212;-86
2023/03/06 00:44:47;;;;;;;74.40;12.75;;;4.20;99.90;;;;;;5018846;28;20404;-86
2023/03/06 00:47:16;;;;;;;74.60;13.23;;;4.10;99.90;;;;;;5017720;28;20254;-86
2023/03/06 00:49:43;;;;;;;75.93;14.18;;;4.20;99.90;;;;;;5025194;28;20161;-86
2023/03/06 00:52:09;;;;;;;72.43;11.40;;;4.20;99.90;;;;;;5025534;28;20261;-86
2023/03/06 00:54:35;;;;;;;75.03;12.70;;;4.20;99.90;;;;;;5025429;28;20158;-86
2023/03/06 00:57:01;;;;;;;77.13;13.60;;;4.10;99.90;;;;;;5025235;28;20164;-86
2023/03/06 00:59:30;;;;;;;75.27;12.07;;;4.20;99.90;;;;;;5025119;28;20459;-86
2023/03/06 01:01:55;;;;;;;73.50;13.57;;;4.20;99.90;;;;;;5025270;28;20456;-86
2023/03/06 01:04:22;;;;;;;75.67;13.37;;;4.20;99.90;;;;;;5025217;28;20205;-86
2023/03/06 01:06:50;;;;;;;74.80;13.48;;;4.20;99.90;;;;;;5024499;28;20451;-86
2023/03/06 01:09:16;;;;;;;75.82;12.68;;;4.10;99.90;;;;;;5029025;28;20253;-85
2023/03/06 01:11:42;;;;;;;77.13;14.70;;;4.10;99.90;;;;;;5028550;28;20177;-85
2023/03/06 01:14:08;;;;;;;75.60;14.37;;;4.00;99.90;;;;;;5026482;28;20162;-85
2023/03/06 01:16:34;;;;;;;76.30;14.60;;;3.90;99.90;;;;;;5025155;28;20739;-86
2023/03/06 01:19:02;;;;;;;77.80;17.13;;;4.00;99.90;;;;;;5024863;28;20419;-86
2023/03/06 01:21:28;;;;;;;77.50;15.88;;;4.00;99.90;;;;;;5026288;28;20435;-86
2023/03/06 01:23:54;;;;;;;76.37;14.33;;;3.90;99.90;;;;;;5024666;28;20166;-86
2023/03/06 01:26:19;;;;;;;74.93;14.23;;;4.10;99.90;;;;;;5025684;28;20440;-85
2023/03/06 01:28:47;;;;;;;79.00;15.53;;;4.10;99.90;;;;;;5024597;28;20645;-86
2023/03/06 01:31:13;;;;;;;78.70;15.93;;;4.20;99.90;;;;;;5025901;28;20165;-85
2023/03/06 01:33:39;;;;;;;77.20;14.70;;;4.20;99.90;;;;;;5023962;28;20573;-87
2023/03/06 01:36:09;;;;;;;76.40;14.00;;;4.20;99.90;;;;;;5025296;28;20753;-87
2023/03/06 01:38:36;;;;;;;81.47;15.35;;;4.20;99.90;;;;;;5025853;28;20157;-87
2023/03/06 01:41:03;;;;;;;77.40;14.20;;;4.20;99.90;;;;;;5024645;28;20250;-86
2023/03/06 01:43:34;;;;;;;82.47;16.08;;;4.20;99.90;;;;;;5026263;28;20186;-86
2023/03/06 01:46:24;;;;;;;78.82;15.15;;;4.10;99.90;;;;;;5026545;28;20217;-86
2023/03/06 01:48:59;;;;;;;86.70;16.95;;;4.10;99.90;;;;;;5029121;28;20158;-85
2023/03/06 01:51:29;;;;;;;77.47;14.35;;;4.10;99.90;;;;;;5028794;28;20150;-85
2023/03/06 01:53:58;;;;;;;84.75;16.58;;;4.20;99.90;;;;;;5029382;28;20184;-85
2023/03/06 01:56:24;;;;;;;85.60;18.58;;;4.20;99.90;;;;;;5027583;28;20166;-86
2023/03/06 01:58:51;;;;;;;80.82;17.52;;;4.20;99.90;;;;;;5025959;28;20507;-86
2023/03/06 02:01:18;;;;;;;82.30;18.05;;;4.20;99.90;;;;;;5023743;28;20182;-86
2023/03/06 02:03:46;;;;;;;86.88;17.77;;;4.20;99.90;;;;;;5024445;28;20162;-85
2023/03/06 02:06:12;;;;;;;81.22;17.50;;;4.20;99.90;;;;;;5021942;28;20313;-86
2023/03/06 02:08:38;;;;;;;80.72;16.20;;;4.20;99.90;;;;;;5023492;28;20533;-85
2023/03/06 02:11:07;;;;;;;82.80;17.90;;;4.10;99.90;;;;;;5024146;28;20565;-85
2023/03/06 02:13:33;;;;;;;81.35;18.00;;;4.00;99.90;;;;;;5023477;28;20626;-86
2023/03/06 02:15:59;;;;;;;84.68;18.05;;;4.10;99.90;;;;;;5023195;28;20170;-86
2023/03/06 02:18:25;;;;;;;82.18;17.77;;;4.10;99.90;;;;;;5022598;28;20495;-86
2023/03/06 02:21:04;;;;;;;85.20;18.37;;;4.10;99.90;;;;;;5022749;28;20170;-86
2023/03/06 02:23:39;;;;;;;91.10;18.50;;;4.20;99.90;;;;;;5020982;28;20425;-85
2023/03/06 02:26:07;;;;;;;84.35;18.23;;;4.20;99.90;;;;;;5020325;28;20703;-85
2023/03/06 02:28:33;;;;;;;84.75;21.88;;;4.20;99.90;;;;;;5019296;28;20177;-86
2023/03/06 02:30:58;;;;;;;87.97;22.30;;;4.20;99.90;;;;;;5019707;28;20168;-86
2023/03/06 02:33:27;;;;;;;84.83;18.87;;;4.20;99.90;;;;;;5020287;28;20267;-86
2023/03/06 02:35:58;;;;;;;85.65;18.92;;;4.20;99.90;;;;;;5020809;28;20169;-86
2023/03/06 02:38:28;;;;;;;86.25;19.40;;;4.20;99.90;;;;;;5021113;28;20158;-86
2023/03/06 02:40:57;;;;;;;85.20;20.05;;;4.20;99.90;;;;;;5021137;28;20633;-86
2023/03/06 02:43:30;;;;;;;90.68;21.33;;;4.20;99.90;;;;;;5021108;28;20189;-86
2023/03/06 02:45:56;;;;;;;84.85;19.17;;;4.10;99.90;;;;;;5020157;28;20233;-86
2023/03/06 02:48:21;;;;;;;86.57;17.95;;;4.10;99.90;;;;;;5021598;28;20517;-86
2023/03/06 02:50:48;;;;;;;83.00;17.80;;;4.10;99.90;;;;;;5019888;28;20253;-86
2023/03/06 02:53:16;;;;;;;89.90;18.25;;;4.10;99.90;;;;;;5020152;28;20182;-86
2023/03/06 02:55:42;;;;;;;85.97;18.75;;;4.20;99.90;;;;;;5021889;28;20169;-86
2023/03/06 02:58:08;;;;;;;84.77;18.87;;;4.10;99.90;;;;;;5021491;28;20581;-86
2023/03/06 03:00:37;;;;;;;88.30;20.13;;;4.10;99.90;;;;;;5020456;28;20405;-84
2023/03/06 03:03:04;;;;;;;87.72;19.35;;;4.20;99.90;;;;;;5019091;28;20425;-86
2023/03/06 03:05:30;;;;;;;85.53;19.42;;;4.20;99.90;;;;;;5019662;28;20198;-86
2023/03/06 03:07:55;;;;;;;87.13;18.63;;;4.20;99.90;;;;;;5020649;28;20198;-86
2023/03/06 03:10:21;;;;;;;88.83;18.90;;;4.10;99.90;;;;;;5020585;28;20240;-86
2023/03/06 03:12:48;;;;;;;89.10;19.23;;;4.20;99.90;;;;;;5018323;28;20185;-86
2023/03/06 03:15:13;;;;;;;84.38;19.25;;;4.20;99.90;;;;;;5020067;28;20162;-86
2023/03/06 03:17:40;;;;;;;85.90;18.50;;;4.10;99.90;;;;;;5018417;28;20174;-86
2023/03/06 03:20:11;;;;;;;86.22;19.33;;;4.20;99.90;;;;;;5018191;28;20405;-85
2023/03/06 03:22:37;;;;;;;84.60;18.30;;;4.20;99.90;;;;;;5021315;28;20201;-85
2023/03/06 03:25:03;;;;;;;87.47;18.77;;;4.20;99.90;;;;;;5021090;28;20637;-86
2023/03/06 03:27:28;;;;;;;90.60;18.83;;;4.20;99.90;;;;;;5019902;28;20649;-86
2023/03/06 03:29:57;;;;;;;87.87;19.60;;;4.20;99.90;;;;;;5020988;28;20216;-86
2023/03/06 03:32:23;;;;;;;88.53;19.83;;;4.20;99.90;;;;;;5022103;28;20245;-86
2023/03/06 03:34:49;;;;;;;87.47;20.10;;;4.10;99.90;;;;;;5024697;28;20205;-85
2023/03/06 03:37:14;;;;;;;91.73;20.80;;;4.10;99.90;;;;;;5020270;28;20459;-85
2023/03/06 03:39:40;;;;;;;89.57;22.20;;;4.10;99.90;;;;;;5019731;28;20170;-85
2023/03/06 03:42:06;;;;;;;88.70;19.73;;;4.10;99.90;;;;;;5019201;28;20189;-85
2023/03/06 03:44:32;;;;;;;91.45;21.65;;;4.10;99.90;;;;;;5020638;28;20224;-85
2023/03/06 03:46:57;;;;;;;97.03;22.33;;;4.10;99.90;;;;;;5020728;28;20243;-86
2023/03/06 03:49:23;;;;;;;89.87;20.30;;;4.00;99.90;;;;;;5020985;28;20632;-86
2023/03/06 03:51:52;;;;;;;93.60;22.20;;;4.10;99.90;;;;;;5020538;28;20189;-85
2023/03/06 03:54:17;;;;;;;96.80;22.50;;;4.00;99.90;;;;;;5020258;28;20168;-86
2023/03/06 03:56:43;;;;;;;93.73;24.93;;;4.00;99.90;;;;;;5020939;28;20524;-85
2023/03/06 03:59:10;;;;;;;94.18;23.10;;;4.10;99.90;;;;;;5019121;28;20189;-86
2023/03/06 04:01:36;;;;;;;90.85;20.65;;;4.00;99.90;;;;;;5020342;28;20180;-84
2023/03/06 04:04:02;;;;;;;94.97;21.63;;;4.00;99.90;;;;;;5019509;28;20177;-86
2023/03/06 04:06:28;;;;;;;92.83;21.23;;;4.00;99.90;;;;;;5018060;28;20196;-86
2023/03/06 04:08:54;;;;;;;90.38;21.98;;;4.00;99.90;;;;;;5018679;28;20408;-86
2023/03/06 04:11:20;;;;;;;99.32;24.27;;;4.00;99.90;;;;;;5020240;28;20161;-85
2023/03/06 04:13:46;;;;;;;96.03;24.07;;;4.00;99.90;;;;;;5018808;28;20177;-85
2023/03/06 04:16:11;;;;;;;93.43;22.53;;;4.00;99.90;;;;;;5018772;28;20165;-85
2023/03/06 04:18:37;;;;;;;94.90;22.60;;;4.10;99.90;;;;;;5020204;28;20506;-86
2023/03/06 04:21:03;;;;;;;91.23;21.30;;;4.10;99.90;;;;;;5019927;28;20166;-86
2023/03/06 04:23:29;;;;;;;91.30;22.23;;;4.10;99.90;;;;;;5019768;28;20185;-86
2023/03/06 04:25:55;;;;;;;91.82;19.88;;;4.10;99.90;;;;;;5020063;28;20510;-86
2023/03/06 04:28:21;;;;;;;91.80;19.90;;;4.10;99.90;;;;;;5018183;28;20647;-86
2023/03/06 04:30:46;;;;;;;92.23;19.83;;;4.00;99.90;;;;;;5019489;28;20200;-86
2023/03/06 04:33:14;;;;;;;92.47;22.43;;;4.00;99.90;;;;;;5018082;28;20924;-85
2023/03/06 04:35:40;;;;;;;92.22;20.25;;;4.00;99.90;;;;;;5020239;28;20208;-85
2023/03/06 04:38:05;;;;;;;97.40;20.37;;;4.10;99.90;;;;;;5019197;28;20174;-86
2023/03/06 04:40:33;;;;;;;88.50;20.20;;;4.00;99.90;;;;;;5018799;28;20511;-86
2023/03/06 04:43:00;;;;;;;92.93;21.23;;;4.00;99.90;;;;;;5019533;28;20193;-86
2023/03/06 04:45:27;;;;;;;90.07;22.33;;;4.00;99.90;;;;;;5018856;28;20193;-85
2023/03/06 04:47:53;;;;;;;93.25;20.30;;;4.00;99.90;;;;;;5019195;28;20530;-86
2023/03/06 04:50:19;;;;;;;99.97;22.85;;;4.00;99.90;;;;;;5018129;28;20541;-86
2023/03/06 04:52:45;;;;;;;94.07;20.60;;;4.00;99.90;;;;;;5017589;28;20190;-86
2023/03/06 04:55:16;;;;;;;93.30;22.05;;;4.00;99.90;;;;;;5018852;28;20416;-86
2023/03/06 04:57:43;;;;;;;94.28;23.00;;;4.00;99.90;;;;;;5019031;28;20193;-86
2023/03/06 05:00:16;;;;;;;93.95;21.90;;;4.00;99.90;;;;;;5018992;28;20513;-85
2023/03/06 05:02:48;;;;;;;93.85;20.45;;;3.90;99.90;;;;;;5018727;28;20273;-86
2023/03/06 05:05:15;;;;;;;91.57;21.73;;;4.00;99.90;;;;;;5017707;28;20197;-85
2023/03/06 05:07:41;;;;;;;93.30;21.10;;;4.00;99.90;;;;;;5019499;28;20166;-85
2023/03/06 05:10:13;;;;;;;95.47;21.33;;;3.90;99.90;;;;;;5018594;28;20161;-86
2023/03/06 05:12:39;;;;;;;91.40;20.50;;;3.90;99.90;;;;;;5019863;28;20182;-86
2023/03/06 05:15:09;;;;;;;98.90;23.40;;;3.90;99.90;;;;;;5019558;28;20237;-85
2023/03/06 05:17:41;;;;;;;96.13;24.13;;;3.90;99.90;;;;;;5019631;28;20389;-86
2023/03/06 05:20:09;;;;;;;98.00;21.10;;;3.90;99.90;;;;;;5020121;28;20159;-85
2023/03/06 05:22:35;;;;;;;94.25;20.65;;;3.90;99.90;;;;;;5019346;28;20213;-86
2023/03/06 05:25:02;;;;;;;94.93;20.60;;;3.90;99.90;;;;;;5019635;28;20158;-85
2023/03/06 05:27:27;;;;;;;90.13;21.70;;;3.90;99.90;;;;;;5019047;28;20433;-86
2023/03/06 05:29:56;;;;;;;89.67;21.47;;;3.90;99.90;;;;;;5017756;28;20162;-85
2023/03/06 05:32:22;;;;;;;95.20;21.27;;;3.80;99.90;;;;;;5019161;28;20204;-86
2023/03/06 05:34:48;;;;;;;103.50;23.60;;;3.80;99.90;;;;;;5018859;28;20256;-86
2023/03/06 05:37:15;;;;;;;96.40;21.88;;;3.80;99.90;;;;;;5022991;28;20412;-85
2023/03/06 05:39:43;;;;;;;96.28;23.77;;;3.80;99.90;;;;;;5023237;28;20192;-85
2023/03/06 05:42:09;;;;;;;94.43;23.17;;;3.80;99.90;;;;;;5023535;28;20193;-85
2023/03/06 05:44:40;;;;;;;96.68;21.13;;;3.80;99.90;;;;;;5023027;28;20182;-85
2023/03/06 05:47:12;;;;;;;99.53;22.63;;;3.80;99.90;;;;;;5023039;28;20196;-85
2023/03/06 05:49:47;;;;;;;96.82;25.45;;;3.80;99.90;;;;;;5023623;28;20574;-85
2023/03/06 05:52:16;;;;;;;103.75;22.88;;;3.80;99.90;;;;;;5022501;28;20232;-85
2023/03/06 05:54:42;;;;;;;104.55;22.63;;;3.80;99.90;;;;;;5022477;28;20166;-85
2023/03/06 05:57:10;;;;;;;95.80;22.60;;;3.80;99.90;;;;;;5021789;28;20181;-85
2023/03/06 05:59:39;;;;;;;100.07;24.70;;;3.80;99.90;;;;;;5021984;28;20162;-85
2023/03/06 06:02:04;;;;;;;95.30;23.02;;;3.90;99.90;;;;;;5020982;28;20194;-86
2023/03/06 06:04:31;;;;;;;107.57;26.47;;;3.80;99.90;;;;;;5022393;28;20184;-86
2023/03/06 06:06:58;;;;;;;100.50;23.25;;;3.80;99.90;;;;;;5021402;28;20185;-86
2023/03/06 06:09:24;;;;;;;98.55;23.75;;;3.80;99.90;;;;;;5022378;28;20170;-86
2023/03/06 06:11:59;;;;;;;105.03;23.98;;;3.80;99.90;;;;;;5021279;28;20240;-86
2023/03/06 06:14:25;;;;;;;100.43;25.23;;;3.80;99.90;;;;;;5021677;28;20157;-86
2023/03/06 06:16:51;;;;;;;107.30;25.67;;;3.80;99.90;;;;;;5021110;28;20166;-86
2023/03/06 06:19:19;;;;;;;100.93;26.15;;;3.80;99.90;;;;;;5021373;28;20416;-86
2023/03/06 06:21:47;;;;;;;102.80;25.90;;;3.80;99.90;;;;;;5020564;28;20577;-86
2023/03/06 06:24:15;;;;;;;94.47;23.83;;;3.80;99.90;;;;;;5019665;28;20264;-86
2023/03/06 06:26:43;;;;;;;99.15;21.65;;;3.80;99.90;;;;;;5021314;28;20196;-86
2023/03/06 06:29:09;;;;;;;110.72;26.88;;;3.80;99.90;;;;;;5020798;28;20173;-86
2023/03/06 06:31:37;;;;;;;96.50;23.90;;;3.80;99.90;;;;;;5020948;28;20225;-85
2023/03/06 06:34:05;;;;;;;104.18;25.70;;;3.80;99.90;;;;;;5021002;28;20178;-85
2023/03/06 06:36:31;;;;;;;104.72;26.60;;;3.90;99.90;;;;;;5019917;28;20209;-85
2023/03/06 06:38:57;;;;;;;103.65;24.70;;;3.90;99.90;;;;;;5019623;28;20170;-85
2023/03/06 06:41:24;;;;;;;99.10;24.67;;;3.90;99.90;;;;;;5018418;28;20677;-86
2023/03/06 06:43:49;;;;;;;96.63;21.55;;;3.90;99.90;;;;;;5019435;28;20413;-85
2023/03/06 06:46:15;;;;;;;100.10;23.30;;;3.90;99.90;;;;;;5020297;28;20201;-86
2023/03/06 06:48:41;;;;;;;95.50;23.10;;;3.90;99.90;;;;;;5019659;28;20193;-85
2023/03/06 06:51:09;;;;;;;97.63;24.23;;;3.90;99.90;;;;;;5019222;28;20405;-85
2023/03/06 06:53:38;;;;;;;97.75;22.83;;;4.00;99.90;;;;;;5020364;28;20529;-85
2023/03/06 06:56:04;;;;;;;99.20;25.02;;;3.90;99.90;;;;;;5020079;28;20585;-85
2023/03/06 06:58:45;;;;;;;98.05;24.27;;;3.90;99.90;;;;;;5019065;28;20188;-85
2023/03/06 07:03:54;;;;;;;99.10;24.10;;;4.00;99.90;;;;;;5028728;22;20224;-85
2023/03/06 07:06:23;;;;;;;102.18;23.63;;;4.00;99.90;;;;;;5036387;28;20256;-85
2023/03/06 07:08:58;;;;;;;99.05;23.38;;;4.00;99.90;;;;;;5020710;28;20252;-86
2023/03/06 07:11:33;;;;;;;97.20;21.60;;;4.10;99.90;;;;;;5020706;28;20161;-85
2023/03/06 07:14:04;;;;;;;102.93;24.33;;;4.10;99.90;;;;;;5020751;28;20213;-86
2023/03/06 07:16:35;;;;;;;101.20;23.55;;;4.10;99.90;;;;;;5020607;28;20237;-85
2023/03/06 07:19:03;;;;;;;98.35;22.70;;;4.10;99.90;;;;;;5021010;28;20160;-86
2023/03/06 07:21:29;;;;;;;103.93;23.48;;;4.10;99.90;;;;;;5021257;28;20162;-85
2023/03/06 07:23:56;;;;;;;102.20;25.80;;;4.20;99.90;;;;;;5019056;28;20205;-85
2023/03/06 07:26:25;;;;;;;104.10;25.65;;;4.20;99.90;;;;;;5019061;28;20468;-85
2023/03/06 07:28:52;;;;;;;102.85;25.20;;;4.30;99.90;;;;;;5020046;28;20162;-85
2023/03/06 07:31:28;;;;;;;105.55;26.95;;;4.20;99.90;;;;;;5018690;28;20172;-85
2023/03/06 07:34:02;;;;;;;103.05;29.17;;;4.30;99.90;;;;;;5018731;28;20170;-86
2023/03/06 07:36:31;;;;;;;102.47;30.90;;;4.30;99.90;;;;;;5020317;28;20150;-85
2023/03/06 07:38:59;;;;;;;102.25;28.15;;;4.30;99.90;;;;;;5019972;28;20659;-85
2023/03/06 07:41:34;;;;;;;101.28;26.80;;;4.20;99.90;;;;;;5018696;28;20170;-85
2023/03/06 07:44:08;;;;;;;103.75;28.15;;;4.20;99.90;;;;;;5019308;28;20305;-86
2023/03/06 07:46:33;;;;;;;99.22;27.35;;;4.20;99.90;;;;;;5019630;28;20205;-86
2023/03/06 07:48:59;;;;;;;104.63;27.63;;;4.30;99.90;;;;;;5018864;28;20169;-85
2023/03/06 07:51:25;;;;;;;104.10;33.00;;;4.30;99.90;;;;;;5017979;28;20268;-85
2023/03/06 07:53:51;;;;;;;99.50;29.83;;;4.40;99.90;;;;;;5020211;28;20166;-85
2023/03/06 07:56:17;;;;;;;98.00;29.10;;;4.40;99.90;;;;;;5019876;28;20409;-85
2023/03/06 07:58:44;;;;;;;99.87;31.23;;;4.40;99.90;;;;;;5018530;28;20173;-85
2023/03/06 08:01:19;;;;;;;98.47;29.95;;;4.40;99.90;;;;;;5018199;28;20177;-86
2023/03/06 08:03:45;;;;;;;104.40;29.95;;;4.40;99.90;;;;;;5019013;28;20630;-86
2023/03/06 08:06:22;;;;;;;104.72;35.00;;;4.50;99.90;;;;;;5019545;28;20224;-85
2023/03/06 08:08:49;;;;;;;107.53;32.88;;;4.60;99.00;;;;;;5018456;28;20162;-85
2023/03/06 08:11:18;;;;;;;106.50;35.00;;;4.60;96.30;;;;;;5017648;28;20216;-84
2023/03/06 08:13:44;;;;;;;98.63;26.70;;;4.70;95.60;;;;;;5017927;28;20234;-84
2023/03/06 08:16:10;;;;;;;99.40;26.08;;;4.70;94.20;;;;;;5018162;28;20213;-86
2023/03/06 08:18:38;;;;;;;100.78;26.08;;;4.70;93.00;;;;;;5018050;28;20173;-85
2023/03/06 08:21:05;;;;;;;102.82;25.63;;;4.80;91.70;;;;;;5018892;28;20161;-85
2023/03/06 08:23:31;;;;;;;102.35;24.42;;;4.80;90.80;;;;;;5017652;28;20186;-86
2023/03/06 08:25:58;;;;;;;99.25;29.27;;;4.80;85.40;;;;;;5019279;28;20193;-86
2023/03/06 08:28:24;;;;;;;99.18;25.10;;;4.90;86.90;;;;;;5017946;28;20168;-86
2023/03/06 08:30:49;;;;;;;98.70;23.10;;;5.00;81.80;;;;;;5018697;28;20229;-86
2023/03/06 08:33:15;;;;;;;95.50;21.20;;;5.00;72.90;;;;;;5019137;28;20677;-86
2023/03/06 08:35:41;;;;;;;100.90;22.27;;;5.10;67.70;;;;;;5019275;28;20181;-85
2023/03/06 08:38:06;;;;;;;98.60;21.87;;;5.20;70.00;;;;;;5018048;28;20174;-85
2023/03/06 08:40:32;;;;;;;100.07;20.20;;;5.30;66.20;;;;;;5019054;28;20225;-85
2023/03/06 08:42:58;;;;;;;93.30;19.60;;;5.30;55.10;;;;;;5018757;28;20197;-85
2023/03/06 08:45:23;;;;;;;89.30;17.70;;;5.40;57.20;;;;;;5019189;28;20264;-86
2023/03/06 08:47:49;;;;;;;90.07;18.10;;;5.40;53.50;;;;;;5019765;28;20170;-86
2023/03/06 08:50:15;;;;;;;87.17;15.27;;;5.50;50.70;;;;;;5017859;28;20252;-85
2023/03/06 08:52:41;;;;;;;83.07;14.23;;;5.60;46.80;;;;;;5104244;23;20221;-86
2023/03/06 08:55:07;;;;;;;86.03;15.37;;;5.60;44.70;;;;;;5039070;28;20401;-86
2023/03/06 08:57:33;;;;;;;83.95;13.30;;;5.60;43.30;;;;;;5038844;28;20185;-86
2023/03/06 08:59:58;;;;;;;84.07;14.20;;;5.70;41.00;;;;;;5037498;28;20168;-85
2023/03/06 09:02:24;;;;;;;81.17;14.27;;;5.70;35.20;;;;;;5037082;28;20302;-85
2023/03/06 09:04:52;;;;;;;86.00;16.30;;;5.70;26.80;;;;;;5037306;28;20161;-86
2023/03/06 09:07:18;;;;;;;82.68;14.23;;;5.50;22.10;;;;;;5038918;28;20188;-85
2023/03/06 09:09:44;;;;;;;85.20;14.33;;;5.50;25.20;;;;;;5041411;28;20161;-85
2023/03/06 09:12:10;;;;;;;82.63;13.20;;;5.50;26.20;;;;;;5043425;28;20420;-85
2023/03/06 09:14:35;;;;;;;84.90;14.77;;;5.50;24.50;;;;;;5043154;28;20194;-85
2023/03/06 09:17:04;;;;;;;82.90;14.37;;;5.50;22.30;;;;;;5043184;28;20185;-85
2023/03/06 09:19:29;;;;;;;83.97;14.82;;;5.60;22.20;;;;;;5045562;28;20171;-85
2023/03/06 09:21:56;;;;;;;86.27;14.70;;;5.50;22.10;;;;;;5043043;28;20232;-86
2023/03/06 09:24:22;;;;;;;86.13;13.75;;;5.50;23.10;;;;;;5043089;28;20172;-85
2023/03/06 09:26:48;;;;;;;89.83;16.80;;;5.50;22.60;;;;;;5042725;28;20260;-85
2023/03/06 09:29:16;;;;;;;87.33;15.70;;;5.60;25.20;;;;;;5043286;28;20165;-86
2023/03/06 09:31:43;;;;;;;90.80;16.52;;;5.50;23.60;;;;;;5044223;28;20255;-85
2023/03/06 09:34:09;;;;;;;87.78;14.70;;;5.50;20.00;;;;;;5043424;28;20155;-86
2023/03/06 09:36:40;;;;;;;87.17;16.63;;;5.50;23.30;;;;;;5041858;28;20264;-85
2023/03/06 09:39:07;;;;;;;86.07;15.43;;;5.50;26.90;;;;;;5042372;28;20938;-85
2023/03/06 09:41:41;;;;;;;88.20;17.10;;;5.60;24.50;;;;;;5041107;28;20245;-85
2023/03/06 09:44:16;;;;;;;90.05;18.52;;;5.60;25.70;;;;;;5041197;28;20268;-85
2023/03/06 09:47:09;;;;;;;93.65;17.70;;;5.80;23.90;;;;;;5041603;28;20193;-85
2023/03/06 09:50:09;;;;;;;93.22;20.23;;;5.90;23.90;;;;;;5040993;28;20651;-85
2023/03/06 09:53:04;;;;;;;91.47;17.05;;;6.00;23.60;;;;;;5042040;28;20193;-85
2023/03/06 09:55:36;;;;;;;89.40;18.38;;;6.10;18.00;;;;;;5042345;28;20240;-85
2023/03/06 09:58:14;;;;;;;92.38;18.23;;;6.10;18.10;;;;;;5040596;28;20157;-86
2023/03/06 10:00:49;;;;;;;93.13;19.83;;;6.10;18.40;;;;;;5041860;28;20157;-85
2023/03/06 10:03:25;;;;;;;84.60;15.27;;;6.00;12.90;;;;;;5041935;28;20579;-85
2023/03/06 10:06:00;;;;;;;88.20;17.50;;;5.90;7.40;;;;;;5040659;28;20252;-85
2023/03/06 10:08:54;;;;;;;86.57;18.08;;;5.80;7.60;;;;;;5042269;28;20152;-86
2023/03/06 10:11:48;;;;;;;88.57;16.95;;;5.80;11.60;;;;;;5041518;28;20675;-86
2023/03/06 10:14:37;;;;;;;89.45;15.82;;;5.90;11.10;;;;;;5012114;28;20183;-86
2023/03/06 10:17:04;;;;;;;85.38;16.30;;;5.90;12.40;;;;;;5042033;28;20520;-86
2023/03/06 10:19:41;;;;;;;88.70;16.58;;;5.90;12.60;;;;;;5041557;28;20525;-86
2023/03/06 10:22:32;;;;;;;88.28;17.52;;;6.10;11.70;;;;;;5040895;28;20189;-86
2023/03/06 10:25:23;;;;;;;90.03;18.35;;;6.20;6.60;;;;;;5041301;28;20153;-86
2023/03/06 10:28:11;;;;;;;87.97;17.65;;;6.20;6.30;;;;;;5041399;28;20252;-86
2023/03/06 10:31:10;;;;;;;90.03;15.85;;;6.30;3.50;;;;;;5054879;28;20651;-86
2023/03/06 10:33:54;;;;;;;91.32;17.30;;;6.30;2.80;;;;;;5039785;28;20189;-86
2023/03/06 10:36:24;;;;;;;90.15;16.75;;;6.30;1.00;;;;;;5039369;28;20153;-85
2023/03/06 10:38:50;;;;;;;92.43;17.85;;;6.30;1.00;;;;;;5041575;28;20165;-85
2023/03/06 10:41:25;;;;;;;89.00;18.50;;;6.40;1.10;;;;;;5039812;28;20173;-86
2023/03/06 10:43:59;;;;;;;88.82;18.05;;;6.40;1.00;;;;;;5040552;28;20230;-85
2023/03/06 10:46:33;;;;;;;85.35;16.20;;;6.40;2.30;;;;;;5040401;28;20188;-85
2023/03/06 10:49:02;;;;;;;85.22;15.25;;;6.40;5.10;;;;;;5040237;28;20208;-86
2023/03/06 10:51:29;;;;;;;88.70;14.77;;;6.40;1.00;;;;;;5039225;28;20176;-85
2023/03/06 10:54:00;;;;;;;87.97;16.23;;;6.40;1.00;;;;;;5041256;28;20185;-86
2023/03/06 10:56:35;;;;;;;88.93;16.67;;;6.30;1.00;;;;;;5039980;28;20200;-85
2023/03/06 10:59:18;;;;;;;85.97;14.85;;;6.30;1.00;;;;;;5039500;28;20171;-86
2023/03/06 11:01:47;;;;;;;84.35;15.75;;;6.20;1.00;;;;;;5041584;28;20692;-85
2023/03/06 11:04:21;;;;;;;87.55;14.48;;;6.20;1.00;;;;;;5040955;28;20165;-85
2023/03/06 11:06:47;;;;;;;86.70;13.48;;;6.20;1.00;;;;;;5039598;28;20181;-85
2023/03/06 11:09:23;;;;;;;88.90;14.70;;;6.30;1.00;;;;;;5041206;28;20164;-85
2023/03/06 11:11:50;;;;;;;83.65;14.57;;;6.20;1.00;;;;;;5040999;28;20416;-85
2023/03/06 11:14:23;;;;;;;83.85;14.05;;;6.20;1.00;;;;;;5039371;28;20779;-85
2023/03/06 11:16:52;;;;;;;84.22;14.00;;;6.20;1.00;;;;;;5041067;28;20157;-85
2023/03/06 11:19:28;;;;;;;82.28;13.65;;;6.10;1.00;;;;;;5040411;28;20172;-85
2023/03/06 11:22:17;;;;;;;84.22;14.68;;;6.10;1.00;;;;;;5040180;28;20193;-85
2023/03/06 11:24:49;;;;;;;81.78;13.68;;;6.20;1.00;;;;;;5039325;28;20166;-86
2023/03/06 11:27:33;;;;;;;82.07;14.43;;;6.20;1.00;;;;;;5040350;28;20280;-85
2023/03/06 11:30:21;;;;;;;83.45;14.88;;;6.20;1.00;;;;;;5041334;28;20157;-86
2023/03/06 11:32:52;;;;;;;86.32;15.60;;;6.20;1.00;;;;;;5055706;28;20197;-85
2023/03/06 11:35:33;;;;;;;81.68;15.25;;;6.10;1.00;;;;;;5105302;23;20236;-85
2023/03/06 11:38:14;;;;;;;83.13;15.30;;;6.10;1.00;;;;;;5030295;28;20177;-85
2023/03/06 11:40:50;;;;;;;88.57;14.85;;;6.00;1.00;;;;;;5029620;28;20185;-85
2023/03/06 11:43:25;;;;;;;82.18;13.98;;;6.00;1.00;;;;;;5029311;28;20185;-85
2023/03/06 11:45:59;;;;;;;81.88;12.88;;;6.10;1.00;;;;;;5028826;28;20185;-85
2023/03/06 11:48:41;;;;;;;82.55;12.82;;;6.20;1.00;;;;;;5028913;28;20126;-84
2023/03/06 11:51:25;;;;;;;84.47;13.60;;;6.20;1.00;;;;;;5029274;28;20567;-85
2023/03/06 11:53:52;;;;;;;83.65;14.05;;;6.20;4.50;;;;;;5027466;28;20232;-86
2023/03/06 11:56:36;;;;;;;84.65;13.02;;;6.20;1.00;;;;;;5028529;28;20166;-85
2023/03/06 11:59:29;;;;;;;82.13;13.00;;;6.20;1.00;;;;;;5044097;28;20221;-84
2023/03/06 12:02:21;;;;;;;80.00;11.75;;;6.20;1.00;;;;;;5029131;28;20649;-84
2023/03/06 12:05:07;;;;;;;81.53;12.73;;;6.20;1.00;;;;;;5029162;28;20162;-85
2023/03/06 12:07:39;;;;;;;87.40;14.65;;;6.10;1.00;;;;;;5028836;28;20185;-84
2023/03/06 12:10:27;;;;;;;84.13;13.45;;;6.20;1.90;;;;;;5028876;28;20153;-84
2023/03/06 12:12:55;;;;;;;82.45;11.77;;;6.30;4.00;;;;;;5044305;28;20185;-84
2023/03/06 12:15:52;;;;;;;79.15;12.57;;;6.40;1.80;;;;;;5028154;28;20238;-84
2023/03/06 12:18:42;;;;;;;80.78;11.52;;;6.60;1.30;;;;;;5027880;28;20181;-84
2023/03/06 12:21:29;;;;;;;79.45;10.55;;;6.70;1.00;;;;;;5028893;28;20150;-84
2023/03/06 12:24:47;;;;;;;80.18;12.30;;;6.70;1.00;;;;;;5028455;28;20150;-84
2023/03/06 12:27:28;;;;;;;81.40;12.45;;;6.80;1.00;;;;;;5027364;28;20196;-84
2023/03/06 12:30:09;;;;;;;83.35;12.20;;;6.80;1.00;;;;;;5027849;28;20154;-85
2023/03/06 12:32:51;;;;;;;85.45;11.82;;;6.60;1.00;;;;;;5027682;28;20219;-85
2023/03/06 12:35:28;;;;;;;84.03;13.35;;;6.60;1.00;;;;;;5028777;28;20185;-85
2023/03/06 12:38:09;;;;;;;79.80;12.55;;;6.50;1.00;;;;;;5028836;28;20153;-84
2023/03/06 12:40:46;;;;;;;81.20;12.00;;;6.50;1.00;;;;;;5027674;28;20165;-84
2023/03/06 12:43:24;;;;;;;80.50;11.60;;;6.40;1.00;;;;;;5027294;28;20185;-84
2023/03/06 12:45:58;;;;;;;92.60;13.65;;;6.40;1.00;;;;;;5028554;28;20190;-84
2023/03/06 12:48:28;;;;;;;80.28;11.15;;;6.30;1.00;;;;;;5028423;28;20553;-84
2023/03/06 12:50:54;;;;;;;78.20;11.90;;;6.30;1.00;;;;;;5027864;28;20255;-84
2023/03/06 12:53:31;;;;;;;80.13;10.73;;;6.40;1.00;;;;;;5028444;28;20182;-84
2023/03/06 12:56:00;;;;;;;77.95;10.77;;;6.50;1.00;;;;;;5028093;28;20173;-84